createdAt,value
2023-02-11T00:01:43.552Z,81.14
2023-02-11T00:06:48.343Z,83.02
2023-02-11T00:11:51.856Z,84.27
2023-02-11T00:16:55.286Z,85.53
2023-02-11T00:21:58.718Z,86.39
2023-02-11T00:27:02.231Z,87.64
2023-02-11T00:32:06.239Z,87.42
2023-02-11T00:37:09.781Z,88.57
2023-02-11T00:42:15.889Z,90.88
2023-02-11T00:47:19.274Z,89.46
2023-02-11T00:52:22.622Z,91.26
2023-02-11T00:57:26.142Z,96.65
2023-02-11T01:02:35.442Z,100.00
2023-02-11T01:07:44.262Z,100.00
2023-02-11T01:12:47.694Z,100.00
2023-02-11T01:18:00.287Z,100.00
2023-02-11T01:23:03.658Z,100.00
2023-02-11T01:28:08.176Z,100.00
2023-02-11T01:33:11.824Z,100.00
2023-02-11T01:38:21.110Z,100.00
2023-02-11T01:43:26.195Z,100.00
2023-02-11T01:48:37.151Z,100.00
2023-02-11T01:54:00.734Z,100.00
2023-02-11T01:59:12.212Z,100.00
2023-02-11T02:04:19.792Z,100.00
2023-02-11T02:09:40.997Z,100.00
2023-02-11T02:14:44.731Z,100.00
2023-02-11T02:20:17.635Z,100.00
2023-02-11T02:25:36.568Z,100.00
2023-02-11T02:30:54.913Z,100.00
2023-02-11T02:36:19.510Z,100.00
2023-02-11T02:41:32.585Z,100.00
2023-02-11T02:46:37.328Z,100.00
2023-02-11T02:51:59.510Z,100.00
2023-02-11T02:57:21.215Z,100.00
2023-02-11T03:02:36.100Z,100.00
2023-02-11T03:08:13.046Z,100.00
2023-02-11T03:13:18.995Z,100.00
2023-02-11T03:18:31.529Z,100.00
2023-02-11T03:23:42.056Z,100.00
2023-02-11T03:28:54.670Z,100.00
2023-02-11T03:34:09.904Z,100.00
2023-02-11T03:39:17.279Z,100.00
2023-02-11T03:44:23.883Z,100.00
2023-02-11T03:49:28.932Z,100.00
2023-02-11T03:54:32.712Z,100.00
2023-02-11T03:59:58.060Z,100.00
2023-02-11T04:05:02.358Z,100.00
2023-02-11T04:10:06.560Z,100.00
2023-02-11T04:15:10.636Z,100.00
2023-02-11T04:20:14.259Z,100.00
2023-02-11T04:25:18.083Z,100.00
2023-02-11T04:30:22.009Z,100.00
2023-02-11T04:35:25.444Z,100.00
2023-02-11T04:40:29.855Z,100.00
2023-02-11T04:45:34.261Z,100.00
2023-02-11T04:50:37.769Z,100.00
2023-02-11T04:55:41.290Z,100.00
2023-02-11T05:00:44.970Z,100.00
2023-02-11T05:05:48.885Z,100.00
2023-02-11T05:10:53.366Z,100.00
2023-02-11T05:15:57.644Z,100.00
2023-02-11T05:21:06.159Z,100.00
2023-02-11T05:26:10.569Z,100.00
2023-02-11T05:31:15.848Z,100.00
2023-02-11T05:36:19.251Z,100.00
2023-02-11T05:41:22.759Z,100.00
2023-02-11T05:46:26.249Z,100.00
2023-02-11T05:51:30.046Z,100.00
2023-02-11T05:56:33.437Z,100.00
2023-02-11T06:01:37.167Z,100.00
2023-02-11T06:06:48.681Z,100.00
2023-02-11T06:11:52.188Z,100.00
2023-02-11T06:16:55.879Z,100.00
2023-02-11T06:21:59.266Z,100.00
2023-02-11T06:27:05.275Z,100.00
2023-02-11T06:32:33.606Z,100.00
2023-02-11T06:37:36.878Z,100.00
2023-02-11T06:42:40.595Z,100.00
2023-02-11T06:47:45.403Z,100.00
2023-02-11T06:52:49.044Z,100.00
2023-02-11T06:57:52.608Z,100.00
2023-02-11T07:02:56.717Z,100.00
2023-02-11T07:08:00.249Z,100.00
2023-02-11T07:13:03.696Z,100.00
2023-02-11T07:18:07.170Z,100.00
2023-02-11T07:23:10.552Z,100.00
2023-02-11T07:28:14.061Z,100.00
2023-02-11T07:33:18.231Z,100.00
2023-02-11T07:38:21.555Z,100.00
2023-02-11T07:43:25.188Z,100.00
2023-02-11T07:48:39.744Z,100.00
2023-02-11T07:53:58.588Z,100.00
2023-02-11T07:59:04.337Z,100.00
2023-02-11T08:04:07.766Z,97.85
2023-02-11T08:09:17.695Z,93.46
2023-02-11T08:14:33.899Z,92.35
2023-02-11T08:19:38.179Z,90.96
2023-02-11T08:24:41.605Z,90.00
2023-02-11T08:29:55.661Z,89.58
2023-02-11T08:34:59.095Z,88.89
2023-02-11T08:40:13.134Z,88.34
2023-02-11T08:45:16.605Z,84.66
2023-02-11T08:50:20.127Z,81.16
2023-02-11T08:55:23.528Z,81.37
2023-02-11T09:00:27.944Z,77.55
2023-02-11T09:05:31.635Z,78.54
2023-02-11T09:10:35.481Z,76.43
2023-02-11T09:15:39.288Z,76.88
2023-02-11T09:20:43.118Z,75.20
2023-02-11T09:25:48.037Z,75.15
2023-02-11T09:30:51.864Z,74.24
2023-02-11T09:36:06.828Z,71.55
2023-02-11T09:41:25.445Z,67.69
2023-02-11T09:46:34.083Z,65.08
2023-02-11T09:51:57.904Z,58.94
2023-02-11T09:57:01.331Z,56.28
2023-02-11T10:02:22.295Z,55.86
2023-02-11T10:07:52.541Z,53.49
2023-02-11T10:13:26.100Z,54.38
2023-02-11T10:19:06.049Z,54.25
2023-02-11T10:24:13.151Z,55.27
2023-02-11T10:29:31.613Z,56.97
2023-02-11T10:34:41.854Z,55.43
2023-02-11T10:39:46.030Z,52.14
2023-02-11T10:45:03.868Z,51.14
2023-02-11T10:50:38.677Z,50.31
2023-02-11T10:55:52.046Z,50.05
2023-02-11T11:00:57.990Z,50.88
2023-02-11T11:06:03.738Z,49.11
2023-02-11T11:11:13.339Z,49.25
2023-02-11T11:16:24.848Z,48.93
2023-02-11T11:21:41.947Z,47.83
2023-02-11T11:26:52.288Z,46.02
2023-02-11T11:32:00.453Z,44.09
2023-02-11T11:37:20.391Z,42.57
2023-02-11T11:42:32.468Z,42.66
2023-02-11T11:47:59.981Z,43.80
2023-02-11T11:53:29.995Z,42.83
2023-02-11T11:58:34.603Z,43.75
2023-02-11T12:04:29.678Z,44.20
2023-02-11T12:09:38.527Z,43.65
2023-02-11T12:14:54.206Z,43.94
2023-02-11T12:20:31.260Z,41.80
2023-02-11T12:25:40.198Z,41.44
2023-02-11T12:31:03.817Z,38.99
2023-02-11T12:36:55.205Z,41.24
2023-02-11T12:42:38.449Z,40.05
2023-02-11T12:47:44.398Z,40.08
2023-02-11T12:53:01.734Z,41.77
2023-02-11T12:58:15.756Z,41.41
2023-02-11T13:03:24.761Z,41.41
2023-02-11T13:08:38.617Z,42.93
2023-02-11T13:13:55.169Z,41.21
2023-02-11T13:19:14.407Z,39.21
2023-02-11T13:24:29.919Z,40.16
2023-02-11T13:30:12.165Z,39.51
2023-02-11T13:35:38.182Z,39.10
2023-02-11T13:40:42.340Z,39.49
2023-02-11T13:45:51.008Z,38.66
2023-02-11T13:51:07.321Z,38.28
2023-02-11T13:56:24.621Z,37.49
2023-02-11T14:01:43.820Z,36.19
2023-02-11T14:07:44.269Z,36.03
2023-02-11T14:13:06.704Z,37.15
2023-02-11T14:18:38.697Z,36.75
2023-02-11T14:23:42.654Z,37.54
2023-02-11T14:28:51.578Z,37.45
2023-02-11T14:34:16.812Z,37.06
2023-02-11T14:39:25.372Z,36.79
2023-02-11T14:44:32.616Z,37.09
2023-02-11T14:49:40.270Z,38.64
2023-02-11T14:54:46.843Z,39.08
2023-02-11T15:00:00.130Z,39.51
2023-02-11T15:05:28.120Z,38.65
2023-02-11T15:10:36.067Z,39.21
2023-02-11T15:15:41.561Z,40.17
2023-02-11T15:20:44.924Z,39.83
2023-02-11T15:25:53.609Z,40.12
2023-02-11T15:31:01.644Z,40.57
2023-02-11T15:36:12.456Z,39.01
2023-02-11T15:41:36.947Z,39.60
2023-02-11T15:46:41.591Z,39.66
2023-02-11T15:51:46.937Z,39.84
2023-02-11T15:57:04.588Z,40.43
2023-02-11T16:02:17.108Z,40.23
2023-02-11T16:07:41.013Z,40.31
2023-02-11T16:13:11.860Z,40.91
2023-02-11T16:18:40.292Z,41.71
2023-02-11T16:23:50.302Z,42.74
2023-02-11T16:28:54.208Z,44.64
2023-02-11T16:33:57.939Z,46.38
2023-02-11T16:39:01.458Z,47.10
2023-02-11T16:44:04.981Z,49.80
2023-02-11T16:49:18.726Z,48.92
2023-02-11T16:54:22.105Z,50.33
2023-02-11T16:59:25.407Z,53.90
2023-02-11T17:04:32.261Z,54.31
2023-02-11T17:09:35.927Z,56.21
2023-02-11T17:14:39.325Z,56.13
2023-02-11T17:19:42.940Z,60.22
2023-02-11T17:24:46.456Z,61.74
2023-02-11T17:29:59.886Z,65.70
2023-02-11T17:35:03.302Z,65.21
2023-02-11T17:40:08.843Z,67.00
2023-02-11T17:45:14.288Z,68.32
2023-02-11T17:50:17.791Z,68.35
2023-02-11T17:55:21.406Z,68.95
2023-02-11T18:00:24.937Z,72.86
2023-02-11T18:05:29.330Z,73.59
2023-02-11T18:10:34.459Z,75.60
2023-02-11T18:15:37.902Z,73.92
2023-02-11T18:20:43.691Z,76.47
2023-02-11T18:25:47.276Z,79.07
2023-02-11T18:30:57.893Z,81.54
2023-02-11T18:36:07.197Z,79.28
2023-02-11T18:41:11.175Z,80.16
2023-02-11T18:46:16.420Z,80.65
2023-02-11T18:51:20.071Z,83.36
2023-02-11T18:56:24.528Z,82.23
2023-02-11T19:01:32.023Z,84.77
2023-02-11T19:06:37.505Z,88.70
2023-02-11T19:11:50.580Z,87.77
2023-02-11T19:16:56.580Z,88.35
2023-02-11T19:22:01.193Z,87.93
2023-02-11T19:27:05.796Z,87.82
2023-02-11T19:32:09.327Z,90.71
2023-02-11T19:37:14.018Z,91.18
2023-02-11T19:42:17.465Z,94.24
2023-02-11T19:47:22.289Z,91.84
2023-02-11T19:52:26.014Z,94.05
2023-02-11T19:57:29.821Z,97.29
2023-02-11T20:02:33.521Z,100.00
2023-02-11T20:07:37.239Z,100.00
2023-02-11T20:12:40.713Z,100.00
2023-02-11T20:17:44.381Z,100.00
2023-02-11T20:22:48.059Z,100.00
2023-02-11T20:27:51.716Z,100.00
2023-02-11T20:32:55.144Z,100.00
2023-02-11T20:37:59.183Z,100.00
2023-02-11T20:43:02.595Z,100.00
2023-02-11T20:48:06.252Z,100.00
2023-02-11T20:53:11.113Z,100.00
2023-02-11T20:58:14.500Z,100.00
2023-02-11T21:03:18.677Z,100.00
2023-02-11T21:08:22.160Z,100.00
2023-02-11T21:13:26.251Z,100.00
2023-02-11T21:18:30.017Z,100.00
2023-02-11T21:23:33.738Z,100.00
2023-02-11T21:28:40.804Z,100.00
2023-02-11T21:33:44.733Z,100.00
2023-02-11T21:38:48.774Z,100.00
2023-02-11T21:43:53.088Z,100.00
2023-02-11T21:48:58.255Z,100.00
2023-02-11T21:54:03.290Z,100.00
2023-02-11T21:59:06.813Z,100.00
2023-02-11T22:04:10.499Z,100.00
2023-02-11T22:09:14.310Z,100.00
2023-02-11T22:14:38.502Z,100.00
2023-02-11T22:19:41.217Z,100.00
2023-02-11T22:24:43.861Z,100.00
2023-02-11T22:29:46.926Z,100.00
2023-02-11T22:34:52.187Z,100.00
2023-02-11T22:39:55.904Z,100.00
2023-02-11T22:44:58.862Z,100.00
2023-02-11T22:50:10.902Z,100.00
2023-02-11T22:55:13.450Z,100.00
2023-02-11T23:00:16.778Z,100.00
2023-02-11T23:05:21.349Z,100.00
2023-02-11T23:10:23.972Z,100.00
2023-02-11T23:15:26.549Z,100.00
2023-02-11T23:20:29.198Z,100.00
2023-02-11T23:25:44.671Z,100.00
2023-02-11T23:30:47.166Z,100.00
2023-02-11T23:35:49.890Z,100.00
2023-02-11T23:40:52.476Z,100.00
2023-02-11T23:46:06.672Z,100.00
2023-02-11T23:51:10.946Z,100.00
2023-02-11T23:56:16.375Z,100.00
